sensor_id;sensor_type;location;lat;lon;timestamp;pressure;altitude;pressure_sealevel;temperature;humidity
59757;BME280;45631;51.962;5.974;2023-04-24T00:02:07;99727.03;;;9.03;100.00
59757;BME280;45631;51.962;5.974;2023-04-24T00:04:38;99735.72;;;9.03;100.00
59757;BME280;45631;51.962;5.974;2023-04-24T00:07:07;99737.53;;;9.03;100.00
59757;BME280;45631;51.962;5.974;2023-04-24T00:09:37;99731.56;;;9.01;100.00
59757;BME280;45631;51.962;5.974;2023-04-24T00:12:05;99735.59;;;9.05;100.00
59757;BME280;45631;51.962;5.974;2023-04-24T00:14:33;99731.31;;;9.04;100.00
59757;BME280;45631;51.962;5.974;2023-04-24T00:17:01;99737.75;;;9.00;100.00
59757;BME280;45631;51.962;5.974;2023-04-24T00:19:30;99736.41;;;8.94;100.00
59757;BME280;45631;51.962;5.974;2023-04-24T00:21:58;99753.22;;;8.91;100.00
59757;BME280;45631;51.962;5.974;2023-04-24T00:24:26;99739.16;;;8.92;100.00
59757;BME280;45631;51.962;5.974;2023-04-24T00:26:55;99743.22;;;8.96;100.00
59757;BME280;45631;51.962;5.974;2023-04-24T00:29:24;99746.66;;;8.97;100.00
59757;BME280;45631;51.962;5.974;2023-04-24T00:31:52;99759.19;;;8.93;100.00
59757;BME280;45631;51.962;5.974;2023-04-24T00:34:20;99759.75;;;8.86;100.00
59757;BME280;45631;51.962;5.974;2023-04-24T00:36:48;99746.78;;;8.84;100.00
59757;BME280;45631;51.962;5.974;2023-04-24T00:39:18;99747.72;;;8.83;100.00
59757;BME280;45631;51.962;5.974;2023-04-24T00:41:47;99759.75;;;8.86;100.00
59757;BME280;45631;51.962;5.974;2023-04-24T00:44:17;99755.13;;;8.89;100.00
59757;BME280;45631;51.962;5.974;2023-04-24T00:46:46;99746.09;;;8.93;100.00
59757;BME280;45631;51.962;5.974;2023-04-24T00:49:18;99755.72;;;8.93;100.00
59757;BME280;45631;51.962;5.974;2023-04-24T00:51:46;99755.38;;;8.86;100.00
59757;BME280;45631;51.962;5.974;2023-04-24T00:54:19;99756.31;;;8.85;100.00
59757;BME280;45631;51.962;5.974;2023-04-24T00:56:47;99751.66;;;8.89;100.00
59757;BME280;45631;51.962;5.974;2023-04-24T00:59:17;99761.31;;;8.88;100.00
59757;BME280;45631;51.962;5.974;2023-04-24T01:01:45;99750.59;;;8.91;100.00
59757;BME280;45631;51.962;5.974;2023-04-24T01:04:14;99746.91;;;8.94;100.00
59757;BME280;45631;51.962;5.974;2023-04-24T01:06:43;99744.91;;;8.98;100.00
59757;BME280;45631;51.962;5.974;2023-04-24T01:09:12;99758.00;;;8.98;100.00
59757;BME280;45631;51.962;5.974;2023-04-24T01:11:41;99749.19;;;8.99;100.00
59757;BME280;45631;51.962;5.974;2023-04-24T01:14:09;99750.47;;;8.93;100.00
59757;BME280;45631;51.962;5.974;2023-04-24T01:16:39;99758.34;;;8.93;100.00
59757;BME280;45631;51.962;5.974;2023-04-24T01:19:09;99761.56;;;8.85;100.00
59757;BME280;45631;51.962;5.974;2023-04-24T01:21:38;99750.00;;;8.88;100.00
59757;BME280;45631;51.962;5.974;2023-04-24T01:24:08;99755.97;;;8.90;100.00
59757;BME280;45631;51.962;5.974;2023-04-24T01:26:36;99749.91;;;8.89;100.00
59757;BME280;45631;51.962;5.974;2023-04-24T01:29:04;99757.03;;;8.87;100.00
59757;BME280;45631;51.962;5.974;2023-04-24T01:31:33;99746.31;;;8.90;100.00
59757;BME280;45631;51.962;5.974;2023-04-24T01:34:02;99747.16;;;8.91;100.00
59757;BME280;45631;51.962;5.974;2023-04-24T01:36:31;99753.22;;;8.91;100.00
59757;BME280;45631;51.962;5.974;2023-04-24T01:38:59;99758.47;;;8.91;100.00
59757;BME280;45631;51.962;5.974;2023-04-24T01:41:31;99746.66;;;8.97;100.00
59757;BME280;45631;51.962;5.974;2023-04-24T01:44:02;99750.97;;;8.98;100.00
59757;BME280;45631;51.962;5.974;2023-04-24T01:46:31;99745.22;;;8.93;100.00
59757;BME280;45631;51.962;5.974;2023-04-24T01:49:01;99745.16;;;8.94;100.00
59757;BME280;45631;51.962;5.974;2023-04-24T01:51:29;99744.41;;;8.92;100.00
59757;BME280;45631;51.962;5.974;2023-04-24T01:53:58;99739.66;;;8.86;100.00
59757;BME280;45631;51.962;5.974;2023-04-24T01:56:29;99742.72;;;8.91;100.00
59757;BME280;45631;51.962;5.974;2023-04-24T01:58:59;99737.84;;;8.87;100.00
59757;BME280;45631;51.962;5.974;2023-04-24T02:01:33;99739.03;;;8.83;100.00
59757;BME280;45631;51.962;5.974;2023-04-24T02:04:02;99742.84;;;8.78;100.00
59757;BME280;45631;51.962;5.974;2023-04-24T02:06:31;99746.78;;;8.84;100.00
59757;BME280;45631;51.962;5.974;2023-04-24T02:08:59;99753.56;;;8.87;100.00
59757;BME280;45631;51.962;5.974;2023-04-24T02:11:27;99740.72;;;8.84;100.00
59757;BME280;45631;51.962;5.974;2023-04-24T02:13:59;99742.97;;;8.88;100.00
59757;BME280;45631;51.962;5.974;2023-04-24T02:16:28;99743.78;;;8.89;100.00
59757;BME280;45631;51.962;5.974;2023-04-24T02:18:59;99737.09;;;8.85;100.00
59757;BME280;45631;51.962;5.974;2023-04-24T02:21:27;99742.84;;;8.78;100.00
59757;BME280;45631;51.962;5.974;2023-04-24T02:23:55;99749.50;;;8.83;100.00
59757;BME280;45631;51.962;5.974;2023-04-24T02:26:23;99735.59;;;8.82;100.00
59757;BME280;45631;51.962;5.974;2023-04-24T02:28:51;99741.78;;;8.81;100.00
59757;BME280;45631;51.962;5.974;2023-04-24T02:31:24;99750.34;;;8.83;100.00
59757;BME280;45631;51.962;5.974;2023-04-24T02:33:52;99745.34;;;8.80;100.00
59757;BME280;45631;51.962;5.974;2023-04-24T02:36:20;99745.84;;;8.85;100.00
59757;BME280;45631;51.962;5.974;2023-04-24T02:38:48;99748.09;;;8.90;100.00
59757;BME280;45631;51.962;5.974;2023-04-24T02:41:16;99748.81;;;8.92;100.00
59757;BME280;45631;51.962;5.974;2023-04-24T02:43:45;99743.47;;;8.93;100.00
59757;BME280;45631;51.962;5.974;2023-04-24T02:46:13;99746.53;;;8.87;100.00
59757;BME280;45631;51.962;5.974;2023-04-24T02:48:42;99736.91;;;8.88;100.00
59757;BME280;45631;51.962;5.974;2023-04-24T02:51:11;99748.78;;;8.80;100.00
59757;BME280;45631;51.962;5.974;2023-04-24T02:53:39;99742.72;;;8.80;100.00
59757;BME280;45631;51.962;5.974;2023-04-24T02:56:07;99746.06;;;8.82;100.00
59757;BME280;45631;51.962;5.974;2023-04-24T02:58:38;99748.91;;;8.79;100.00
59757;BME280;45631;51.962;5.974;2023-04-24T03:01:06;99742.47;;;8.72;100.00
59757;BME280;45631;51.962;5.974;2023-04-24T03:03:34;99752.47;;;8.78;100.00
59757;BME280;45631;51.962;5.974;2023-04-24T03:06:04;99751.31;;;8.82;100.00
59757;BME280;45631;51.962;5.974;2023-04-24T03:08:32;99752.47;;;8.78;100.00
59757;BME280;45631;51.962;5.974;2023-04-24T03:11:00;99759.88;;;8.73;100.00
59757;BME280;45631;51.962;5.974;2023-04-24T03:13:28;99756.28;;;8.74;100.00
59757;BME280;45631;51.962;5.974;2023-04-24T03:15:56;99759.75;;;8.74;100.00
59757;BME280;45631;51.962;5.974;2023-04-24T03:18:24;99763.19;;;8.75;100.00
59757;BME280;45631;51.962;5.974;2023-04-24T03:20:53;99769.75;;;8.80;100.00
59757;BME280;45631;51.962;5.974;2023-04-24T03:23:22;99756.50;;;8.71;100.00
59757;BME280;45631;51.962;5.974;2023-04-24T03:25:51;99761.63;;;8.72;100.00
59757;BME280;45631;51.962;5.974;2023-04-24T03:28:19;99764.88;;;8.76;100.00
59757;BME280;45631;51.962;5.974;2023-04-24T03:30:47;99774.63;;;8.74;100.00
59757;BME280;45631;51.962;5.974;2023-04-24T03:33:17;99778.09;;;8.74;100.00
59757;BME280;45631;51.962;5.974;2023-04-24T03:35:46;99770.13;;;8.76;100.00
59757;BME280;45631;51.962;5.974;2023-04-24T03:38:14;99772.97;;;8.73;100.00
59757;BME280;45631;51.962;5.974;2023-04-24T03:40:43;99779.38;;;8.69;100.00
59757;BME280;45631;51.962;5.974;2023-04-24T03:43:14;99765.53;;;8.67;100.00
59757;BME280;45631;51.962;5.974;2023-04-24T03:45:42;99776.03;;;8.67;100.00
59757;BME280;45631;51.962;5.974;2023-04-24T03:48:10;99771.47;;;8.57;100.00
59757;BME280;45631;51.962;5.974;2023-04-24T03:50:38;99776.81;;;8.56;100.00
59757;BME280;45631;51.962;5.974;2023-04-24T03:53:06;99770.53;;;8.58;100.00
59757;BME280;45631;51.962;5.974;2023-04-24T03:55:34;99780.50;;;8.53;100.00
59757;BME280;45631;51.962;5.974;2023-04-24T03:58:04;99784.28;;;8.49;100.00
59757;BME280;45631;51.962;5.974;2023-04-24T04:00:32;99778.00;;;8.52;100.00
59757;BME280;45631;51.962;5.974;2023-04-24T04:03:01;99775.59;;;8.49;100.00
59757;BME280;45631;51.962;5.974;2023-04-24T04:05:29;99778.22;;;8.49;100.00
59757;BME280;45631;51.962;5.974;2023-04-24T04:07:58;99780.72;;;8.50;100.00
59757;BME280;45631;51.962;5.974;2023-04-24T04:10:26;99787.03;;;8.48;100.00
59757;BME280;45631;51.962;5.974;2023-04-24T04:12:54;99778.63;;;8.42;100.00
59757;BME280;45631;51.962;5.974;2023-04-24T04:15:23;99786.84;;;8.38;100.00
59757;BME280;45631;51.962;5.974;2023-04-24T04:17:51;99784.34;;;8.36;100.00
59757;BME280;45631;51.962;5.974;2023-04-24T04:20:19;99796.69;;;8.34;100.00
59757;BME280;45631;51.962;5.974;2023-04-24T04:22:48;99788.53;;;8.39;100.00
59757;BME280;45631;51.962;5.974;2023-04-24T04:25:16;99789.19;;;8.29;100.00
59757;BME280;45631;51.962;5.974;2023-04-24T04:27:46;99788.13;;;8.32;100.00
59757;BME280;45631;51.962;5.974;2023-04-24T04:30:14;99794.94;;;8.35;100.00
59757;BME280;45631;51.962;5.974;2023-04-24T04:32:44;99793.09;;;8.24;100.00
59757;BME280;45631;51.962;5.974;2023-04-24T04:35:12;99789.41;;;8.26;100.00
59757;BME280;45631;51.962;5.974;2023-04-24T04:37:40;99787.50;;;8.28;100.00
59757;BME280;45631;51.962;5.974;2023-04-24T04:40:09;99785.81;;;8.27;100.00
59757;BME280;45631;51.962;5.974;2023-04-24T04:42:38;99792.84;;;8.27;100.00
59757;BME280;45631;51.962;5.974;2023-04-24T04:45:08;99791.91;;;8.28;100.00
59757;BME280;45631;51.962;5.974;2023-04-24T04:47:38;99798.44;;;8.22;100.00
59757;BME280;45631;51.962;5.974;2023-04-24T04:50:09;99795.06;;;8.20;100.00
59757;BME280;45631;51.962;5.974;2023-04-24T04:52:38;99797.94;;;8.17;100.00
59757;BME280;45631;51.962;5.974;2023-04-24T04:55:07;99792.22;;;8.23;100.00
59757;BME280;45631;51.962;5.974;2023-04-24T04:57:35;99789.13;;;8.18;100.00
59757;BME280;45631;51.962;5.974;2023-04-24T05:00:04;99798.63;;;8.19;100.00
59757;BME280;45631;51.962;5.974;2023-04-24T05:02:33;99795.72;;;8.11;100.00
59757;BME280;45631;51.962;5.974;2023-04-24T05:05:01;99802.41;;;8.15;100.00
59757;BME280;45631;51.962;5.974;2023-04-24T05:07:34;99790.28;;;8.14;100.00
59757;BME280;45631;51.962;5.974;2023-04-24T05:10:03;99792.41;;;8.09;100.00
59757;BME280;45631;51.962;5.974;2023-04-24T05:12:31;99791.53;;;8.08;100.00
59757;BME280;45631;51.962;5.974;2023-04-24T05:15:00;99794.09;;;8.10;100.00
59757;BME280;45631;51.962;5.974;2023-04-24T05:17:28;99801.81;;;8.11;100.00
59757;BME280;45631;51.962;5.974;2023-04-24T05:19:56;99795.72;;;8.11;100.00
59757;BME280;45631;51.962;5.974;2023-04-24T05:22:24;99809.28;;;8.05;100.00
59757;BME280;45631;51.962;5.974;2023-04-24T05:24:54;99812.31;;;7.99;100.00
59757;BME280;45631;51.962;5.974;2023-04-24T05:27:22;99812.31;;;7.99;100.00
59757;BME280;45631;51.962;5.974;2023-04-24T05:29:50;99813.78;;;8.03;100.00
59757;BME280;45631;51.962;5.974;2023-04-24T05:32:18;99821.63;;;8.03;100.00
59757;BME280;45631;51.962;5.974;2023-04-24T05:34:46;99828.53;;;8.04;100.00
59757;BME280;45631;51.962;5.974;2023-04-24T05:37:14;99827.28;;;8.09;100.00
59757;BME280;45631;51.962;5.974;2023-04-24T05:39:43;99832.72;;;8.06;100.00
59757;BME280;45631;51.962;5.974;2023-04-24T05:42:12;99832.41;;;8.11;100.00
59757;BME280;45631;51.962;5.974;2023-04-24T05:44:40;99830.94;;;8.20;100.00
59757;BME280;45631;51.962;5.974;2023-04-24T05:47:08;99842.56;;;8.16;100.00
59757;BME280;45631;51.962;5.974;2023-04-24T05:49:36;99845.78;;;8.19;100.00
59757;BME280;45631;51.962;5.974;2023-04-24T05:52:04;99850.72;;;8.24;100.00
59757;BME280;45631;51.962;5.974;2023-04-24T05:54:37;99846.06;;;8.27;100.00
59757;BME280;45631;51.962;5.974;2023-04-24T05:57:06;99851.72;;;8.34;100.00
59757;BME280;45631;51.962;5.974;2023-04-24T05:59:37;99849.84;;;8.36;100.00
59757;BME280;45631;51.962;5.974;2023-04-24T06:02:05;99853.41;;;8.35;100.00
59757;BME280;45631;51.962;5.974;2023-04-24T06:04:36;99855.59;;;8.41;100.00
59757;BME280;45631;51.962;5.974;2023-04-24T06:07:04;99865.84;;;8.44;100.00
59757;BME280;45631;51.962;5.974;2023-04-24T06:09:33;99869.94;;;8.49;100.00
59757;BME280;45631;51.962;5.974;2023-04-24T06:12:01;99878.44;;;8.52;100.00
59757;BME280;45631;51.962;5.974;2023-04-24T06:14:31;99868.78;;;8.53;100.00
59757;BME280;45631;51.962;5.974;2023-04-24T06:17:00;99875.69;;;8.54;100.00
59757;BME280;45631;51.962;5.974;2023-04-24T06:19:31;99890.38;;;8.56;100.00
59757;BME280;45631;51.962;5.974;2023-04-24T06:22:02;99884.16;;;8.57;100.00
59757;BME280;45631;51.962;5.974;2023-04-24T06:24:30;99887.41;;;8.61;100.00
59757;BME280;45631;51.962;5.974;2023-04-24T06:27:01;99891.38;;;8.67;100.00
59757;BME280;45631;51.962;5.974;2023-04-24T06:29:29;99894.94;;;8.66;100.00
59757;BME280;45631;51.962;5.974;2023-04-24T06:31:57;99903.41;;;8.69;100.00
59757;BME280;45631;51.962;5.974;2023-04-24T06:34:27;99899.75;;;8.72;100.00
59757;BME280;45631;51.962;5.974;2023-04-24T06:36:55;99907.59;;;8.72;100.00
59757;BME280;45631;51.962;5.974;2023-04-24T06:39:23;99909.88;;;8.76;100.00
59757;BME280;45631;51.962;5.974;2023-04-24T06:41:51;99910.63;;;8.78;100.00
59757;BME280;45631;51.962;5.974;2023-04-24T06:44:19;99911.13;;;8.84;100.00
59757;BME280;45631;51.962;5.974;2023-04-24T06:46:47;99927.34;;;8.89;100.00
59757;BME280;45631;51.962;5.974;2023-04-24T06:49:15;99921.28;;;8.88;100.00
59757;BME280;45631;51.962;5.974;2023-04-24T06:51:45;99929.66;;;8.93;100.00
59757;BME280;45631;51.962;5.974;2023-04-24T06:54:13;99931.09;;;8.98;100.00
59757;BME280;45631;51.962;5.974;2023-04-24T06:56:41;99936.56;;;8.94;100.00
59757;BME280;45631;51.962;5.974;2023-04-24T06:59:09;99937.06;;;9.00;100.00
59757;BME280;45631;51.962;5.974;2023-04-24T07:01:37;99942.81;;;9.05;100.00
59757;BME280;45631;51.962;5.974;2023-04-24T07:04:05;99929.06;;;9.01;100.00
59757;BME280;45631;51.962;5.974;2023-04-24T07:06:34;99937.69;;;9.03;100.00
59757;BME280;45631;51.962;5.974;2023-04-24T07:09:04;99938.78;;;9.12;100.00
59757;BME280;45631;51.962;5.974;2023-04-24T07:11:32;99939.66;;;9.24;100.00
59757;BME280;45631;51.962;5.974;2023-04-24T07:14:00;99946.47;;;9.26;100.00
59757;BME280;45631;51.962;5.974;2023-04-24T07:16:29;99957.09;;;9.25;100.00
59757;BME280;45631;51.962;5.974;2023-04-24T07:18:57;99956.03;;;9.27;100.00
59757;BME280;45631;51.962;5.974;2023-04-24T07:21:25;99962.00;;;9.29;100.00
59757;BME280;45631;51.962;5.974;2023-04-24T07:23:53;99974.28;;;9.29;100.00
59757;BME280;45631;51.962;5.974;2023-04-24T07:26:23;99976.13;;;9.16;100.00
59757;BME280;45631;51.962;5.974;2023-04-24T07:28:51;99978.53;;;9.19;100.00
59757;BME280;45631;51.962;5.974;2023-04-24T07:31:19;99978.75;;;9.16;100.00
59757;BME280;45631;51.962;5.974;2023-04-24T07:33:48;99987.16;;;9.08;100.00
59757;BME280;45631;51.962;5.974;2023-04-24T07:36:17;99993.50;;;9.05;100.00
59757;BME280;45631;51.962;5.974;2023-04-24T07:38:46;99991.69;;;9.06;100.00
59757;BME280;45631;51.962;5.974;2023-04-24T07:41:14;99984.25;;;9.00;100.00
59757;BME280;45631;51.962;5.974;2023-04-24T07:43:44;99998.81;;;9.04;100.00
59757;BME280;45631;51.962;5.974;2023-04-24T07:46:12;100002.84;;;8.96;100.00
59757;BME280;45631;51.962;5.974;2023-04-24T07:48:40;100015.44;;;8.91;100.00
59757;BME280;45631;51.962;5.974;2023-04-24T07:51:08;100020.22;;;8.73;100.00
59757;BME280;45631;51.962;5.974;2023-04-24T07:53:40;100023.66;;;8.74;100.00
59757;BME280;45631;51.962;5.974;2023-04-24T07:56:08;100031.56;;;8.61;100.00
59757;BME280;45631;51.962;5.974;2023-04-24T07:58:36;100034.41;;;8.58;100.00
59757;BME280;45631;51.962;5.974;2023-04-24T08:01:09;100048.78;;;8.52;100.00
59757;BME280;45631;51.962;5.974;2023-04-24T08:03:37;100055.78;;;8.52;100.00
59757;BME280;45631;51.962;5.974;2023-04-24T08:06:06;100068.59;;;8.56;100.00
59757;BME280;45631;51.962;5.974;2023-04-24T08:08:34;100071.72;;;8.36;100.00
59757;BME280;45631;51.962;5.974;2023-04-24T08:11:02;100078.41;;;8.40;100.00
59757;BME280;45631;51.962;5.974;2023-04-24T08:13:30;100089.09;;;8.37;100.00
59757;BME280;45631;51.962;5.974;2023-04-24T08:15:58;100105.66;;;8.37;100.00
59757;BME280;45631;51.962;5.974;2023-04-24T08:18:28;100101.66;;;8.32;100.00
59757;BME280;45631;51.962;5.974;2023-04-24T08:20:56;100108.38;;;8.36;100.00
59757;BME280;45631;51.962;5.974;2023-04-24T08:23:28;100119.91;;;8.33;100.00
59757;BME280;45631;51.962;5.974;2023-04-24T08:25:56;100130.56;;;8.30;100.00
59757;BME280;45631;51.962;5.974;2023-04-24T08:28:25;100129.00;;;8.27;100.00
59757;BME280;45631;51.962;5.974;2023-04-24T08:30:53;100145.25;;;8.20;100.00
59757;BME280;45631;51.962;5.974;2023-04-24T08:33:25;100153.09;;;8.20;100.00
59757;BME280;45631;51.962;5.974;2023-04-24T08:35:54;100157.47;;;8.19;100.00
59757;BME280;45631;51.962;5.974;2023-04-24T08:38:22;100168.28;;;8.15;100.00
59757;BME280;45631;51.962;5.974;2023-04-24T08:40:51;100176.03;;;8.16;100.00
59757;BME280;45631;51.962;5.974;2023-04-24T08:43:21;100176.03;;;8.16;100.00
59757;BME280;45631;51.962;5.974;2023-04-24T08:45:50;100178.00;;;8.12;100.00
59757;BME280;45631;51.962;5.974;2023-04-24T08:48:22;100190.59;;;8.07;100.00
59757;BME280;45631;51.962;5.974;2023-04-24T08:50:59;100191.72;;;8.03;100.00
59757;BME280;45631;51.962;5.974;2023-04-24T08:53:32;100194.69;;;8.11;100.00
59757;BME280;45631;51.962;5.974;2023-04-24T08:56:01;100203.16;;;8.15;100.00
59757;BME280;45631;51.962;5.974;2023-04-24T08:58:31;100211.31;;;8.10;100.00
59757;BME280;45631;51.962;5.974;2023-04-24T09:01:00;100214.06;;;8.22;100.00
59757;BME280;45631;51.962;5.974;2023-04-24T09:03:28;100216.41;;;8.26;100.00
59757;BME280;45631;51.962;5.974;2023-04-24T09:05:58;100215.38;;;8.29;100.00
59757;BME280;45631;51.962;5.974;2023-04-24T09:08:28;100228.66;;;8.26;100.00
59757;BME280;45631;51.962;5.974;2023-04-24T09:10:56;100230.94;;;8.18;100.00
59757;BME280;45631;51.962;5.974;2023-04-24T09:13:28;100230.75;;;8.21;100.00
59757;BME280;45631;51.962;5.974;2023-04-24T09:15:57;100228.03;;;8.22;100.00
59757;BME280;45631;51.962;5.974;2023-04-24T09:18:27;100248.91;;;8.09;100.00
59757;BME280;45631;51.962;5.974;2023-04-24T09:21:00;100265.88;;;8.04;100.00
59757;BME280;45631;51.962;5.974;2023-04-24T09:23:30;100265.53;;;7.95;100.00
59757;BME280;45631;51.962;5.974;2023-04-24T09:25:59;100274.31;;;7.94;100.00
59757;BME280;45631;51.962;5.974;2023-04-24T09:28:30;100276.34;;;8.04;100.00
59757;BME280;45631;51.962;5.974;2023-04-24T09:31:03;100284.34;;;8.15;100.00
59757;BME280;45631;51.962;5.974;2023-04-24T09:33:31;100288.56;;;8.18;100.00
59757;BME280;45631;51.962;5.974;2023-04-24T09:36:01;100290.00;;;8.09;100.00
59757;BME280;45631;51.962;5.974;2023-04-24T09:38:34;100295.59;;;8.17;100.00
59757;BME280;45631;51.962;5.974;2023-04-24T09:41:05;100302.97;;;8.25;100.00
59757;BME280;45631;51.962;5.974;2023-04-24T09:43:33;100307.41;;;8.37;100.00
59757;BME280;45631;51.962;5.974;2023-04-24T09:46:05;100306.47;;;8.38;100.00
59757;BME280;45631;51.962;5.974;2023-04-24T09:48:35;100316.31;;;8.35;100.00
59757;BME280;45631;51.962;5.974;2023-04-24T09:51:05;100319.31;;;8.28;100.00
59757;BME280;45631;51.962;5.974;2023-04-24T09:53:37;100324.06;;;8.36;100.00
59757;BME280;45631;51.962;5.974;2023-04-24T09:56:07;100332.88;;;8.35;100.00
59757;BME280;45631;51.962;5.974;2023-04-24T09:58:36;100329.50;;;8.48;100.00
59757;BME280;45631;51.962;5.974;2023-04-24T10:01:05;100346.06;;;8.48;100.00
59757;BME280;45631;51.962;5.974;2023-04-24T10:03:35;100348.72;;;8.61;100.00
59757;BME280;45631;51.962;5.974;2023-04-24T10:06:05;100357.03;;;8.68;100.00
59757;BME280;45631;51.962;5.974;2023-04-24T10:08:36;100353.28;;;8.72;100.00
59757;BME280;45631;51.962;5.974;2023-04-24T10:11:05;100359.63;;;8.82;100.00
59757;BME280;45631;51.962;5.974;2023-04-24T10:13:35;100363.09;;;8.95;100.00
59757;BME280;45631;51.962;5.974;2023-04-24T10:16:04;100367.19;;;9.00;100.00
59757;BME280;45631;51.962;5.974;2023-04-24T10:18:33;100357.19;;;9.19;100.00
59757;BME280;45631;51.962;5.974;2023-04-24T10:21:02;100363.34;;;9.31;100.00
59757;BME280;45631;51.962;5.974;2023-04-24T10:23:32;100365.91;;;9.45;100.00
59757;BME280;45631;51.962;5.974;2023-04-24T10:26:01;100363.06;;;9.48;100.00
59757;BME280;45631;51.962;5.974;2023-04-24T10:28:30;100364.00;;;9.73;100.00
59757;BME280;45631;51.962;5.974;2023-04-24T10:31:00;100368.47;;;10.10;100.00
59757;BME280;45631;51.962;5.974;2023-04-24T10:33:29;100369.09;;;10.13;100.00
59757;BME280;45631;51.962;5.974;2023-04-24T10:35:58;100382.53;;;10.35;100.00
59757;BME280;45631;51.962;5.974;2023-04-24T10:38:28;100384.78;;;10.52;100.00
59757;BME280;45631;51.962;5.974;2023-04-24T10:41:07;100369.97;;;10.75;100.00
59757;BME280;45631;51.962;5.974;2023-04-24T10:43:36;100381.13;;;10.90;100.00
59757;BME280;45631;51.962;5.974;2023-04-24T10:46:06;100393.06;;;11.07;100.00
59757;BME280;45631;51.962;5.974;2023-04-24T10:48:42;100384.50;;;10.92;100.00
59757;BME280;45631;51.962;5.974;2023-04-24T10:51:12;100397.28;;;10.61;100.00
59757;BME280;45631;51.962;5.974;2023-04-24T10:53:40;100394.69;;;10.73;100.00
59757;BME280;45631;51.962;5.974;2023-04-24T10:56:10;100409.00;;;10.69;100.00
59757;BME280;45631;51.962;5.974;2023-04-24T10:58:40;100400.06;;;10.71;100.00
59757;BME280;45631;51.962;5.974;2023-04-24T11:01:22;100412.19;;;10.85;100.00
59757;BME280;45631;51.962;5.974;2023-04-24T11:03:55;100423.91;;;11.05;100.00
59757;BME280;45631;51.962;5.974;2023-04-24T11:06:30;100428.84;;;11.10;100.00
59757;BME280;45631;51.962;5.974;2023-04-24T11:09:03;100427.03;;;11.10;100.00
59757;BME280;45631;51.962;5.974;2023-04-24T11:11:35;100423.09;;;11.16;100.00
59757;BME280;45631;51.962;5.974;2023-04-24T11:14:09;100427.19;;;11.20;100.00
59757;BME280;45631;51.962;5.974;2023-04-24T11:16:44;100435.56;;;10.90;100.00
59757;BME280;45631;51.962;5.974;2023-04-24T11:19:22;100435.94;;;10.72;100.00
59757;BME280;45631;51.962;5.974;2023-04-24T11:21:57;100438.41;;;10.62;100.00
59757;BME280;45631;51.962;5.974;2023-04-24T11:24:38;100448.34;;;10.70;100.00
59757;BME280;45631;51.962;5.974;2023-04-24T11:27:13;100445.19;;;10.78;100.00
59757;BME280;45631;51.962;5.974;2023-04-24T11:29:43;100452.16;;;10.66;100.00
59757;BME280;45631;51.962;5.974;2023-04-24T11:32:16;100461.59;;;10.81;100.00
59757;BME280;45631;51.962;5.974;2023-04-24T11:34:47;100467.41;;;10.74;100.00
59757;BME280;45631;51.962;5.974;2023-04-24T11:37:15;100473.69;;;10.84;100.00
59757;BME280;45631;51.962;5.974;2023-04-24T11:39:43;100477.13;;;10.85;100.00
59757;BME280;45631;51.962;5.974;2023-04-24T11:42:15;100468.84;;;10.78;100.00
59757;BME280;45631;51.962;5.974;2023-04-24T11:44:43;100468.19;;;10.87;100.00
59757;BME280;45631;51.962;5.974;2023-04-24T11:47:14;100473.09;;;10.92;100.00
59757;BME280;45631;51.962;5.974;2023-04-24T11:49:42;100465.22;;;11.16;100.00
59757;BME280;45631;51.962;5.974;2023-04-24T11:52:10;100469.41;;;10.94;100.00
59757;BME280;45631;51.962;5.974;2023-04-24T11:54:49;100480.34;;;11.25;100.00
59757;BME280;45631;51.962;5.974;2023-04-24T11:57:20;100481.56;;;11.32;100.00
59757;BME280;45631;51.962;5.974;2023-04-24T11:59:52;100501.44;;;11.37;100.00
59757;BME280;45631;51.962;5.974;2023-04-24T12:02:21;100497.28;;;11.10;100.00
59757;BME280;45631;51.962;5.974;2023-04-24T12:04:50;100498.53;;;11.04;100.00
59757;BME280;45631;51.962;5.974;2023-04-24T12:07:19;100495.63;;;10.96;100.00
59757;BME280;45631;51.962;5.974;2023-04-24T12:09:55;100505.38;;;10.82;100.00
59757;BME280;45631;51.962;5.974;2023-04-24T12:12:27;100511.69;;;10.80;100.00
59757;BME280;45631;51.962;5.974;2023-04-24T12:14:56;100517.38;;;10.74;100.00
59757;BME280;45631;51.962;5.974;2023-04-24T12:17:26;100532.72;;;10.67;100.00
59757;BME280;45631;51.962;5.974;2023-04-24T12:19:59;100526.56;;;10.55;100.00
59757;BME280;45631;51.962;5.974;2023-04-24T12:22:43;100530.34;;;10.38;100.00
59757;BME280;45631;51.962;5.974;2023-04-24T12:25:13;100524.13;;;10.52;100.00
59757;BME280;45631;51.962;5.974;2023-04-24T12:27:43;100541.91;;;10.61;100.00
59757;BME280;45631;51.962;5.974;2023-04-24T12:30:13;100533.41;;;10.45;100.00
59757;BME280;45631;51.962;5.974;2023-04-24T12:32:45;100524.13;;;10.52;100.00
59757;BME280;45631;51.962;5.974;2023-04-24T12:35:19;100535.69;;;10.62;100.00
59757;BME280;45631;51.962;5.974;2023-04-24T12:37:47;100545.78;;;10.69;100.00
59757;BME280;45631;51.962;5.974;2023-04-24T12:40:17;100539.81;;;10.67;100.00
59757;BME280;45631;51.962;5.974;2023-04-24T12:42:49;100551.25;;;10.78;100.00
59757;BME280;45631;51.962;5.974;2023-04-24T12:45:18;100546.59;;;10.95;100.00
59757;BME280;45631;51.962;5.974;2023-04-24T12:47:46;100553.06;;;11.02;100.00
59757;BME280;45631;51.962;5.974;2023-04-24T12:50:16;100553.47;;;11.09;100.00
59757;BME280;45631;51.962;5.974;2023-04-24T12:52:45;100553.72;;;11.06;100.00
59757;BME280;45631;51.962;5.974;2023-04-24T12:55:13;100553.94;;;10.90;100.00
59757;BME280;45631;51.962;5.974;2023-04-24T12:57:41;100557.28;;;11.05;100.00
59757;BME280;45631;51.962;5.974;2023-04-24T13:00:12;100557.53;;;10.89;100.00
59757;BME280;45631;51.962;5.974;2023-04-24T13:02:40;100559.56;;;11.09;100.00
59757;BME280;45631;51.962;5.974;2023-04-24T13:05:08;100555.16;;;11.10;100.00
59757;BME280;45631;51.962;5.974;2023-04-24T13:07:38;100562.25;;;11.21;100.00